createdAt,value
2018-11-01T00:00:13.450Z,35.80
2018-11-01T00:02:42.134Z,33.53
2018-11-01T00:05:10.874Z,33.10
2018-11-01T00:07:39.670Z,31.83
2018-11-01T00:10:08.317Z,31.67
2018-11-01T00:12:40.046Z,37.80
2018-11-01T00:15:09.479Z,36.13
2018-11-01T00:17:38.370Z,35.40
2018-11-01T00:20:09.005Z,38.07
2018-11-01T00:22:37.777Z,37.73
2018-11-01T00:25:07.251Z,36.10
2018-11-01T00:27:35.920Z,30.00
2018-11-01T00:30:08.505Z,28.43
2018-11-01T00:32:37.230Z,26.07
2018-11-01T00:35:06.053Z,35.47
2018-11-01T00:37:34.751Z,33.37
2018-11-01T00:40:03.661Z,32.23
2018-11-01T00:42:32.326Z,30.50
2018-11-01T00:45:00.938Z,30.50
2018-11-01T00:47:29.568Z,29.00
2018-11-01T00:49:58.183Z,30.17
2018-11-01T00:52:26.890Z,34.33
2018-11-01T00:54:55.516Z,32.93
2018-11-01T00:57:24.175Z,36.20
2018-11-01T00:59:52.809Z,31.47
2018-11-01T01:02:21.481Z,27.23
2018-11-01T01:04:50.122Z,27.40
2018-11-01T01:07:18.727Z,26.70
2018-11-01T01:09:47.339Z,28.63
2018-11-01T01:12:15.966Z,24.70
2018-11-01T01:14:44.617Z,31.23
2018-11-01T01:17:13.251Z,30.77
2018-11-01T01:19:41.912Z,26.53
2018-11-01T01:22:10.618Z,29.03
2018-11-01T01:24:39.273Z,29.97
2018-11-01T01:27:07.979Z,23.47
2018-11-01T01:29:36.685Z,25.90
2018-11-01T01:32:05.340Z,31.03
2018-11-01T01:34:34.023Z,26.43
2018-11-01T01:37:02.637Z,25.53
2018-11-01T01:39:31.297Z,24.53
2018-11-01T01:42:00.291Z,26.57
2018-11-01T01:44:28.899Z,26.47
2018-11-01T01:46:57.592Z,27.60
2018-11-01T01:49:26.402Z,28.40
2018-11-01T01:51:55.081Z,25.10
2018-11-01T01:54:23.986Z,30.20
2018-11-01T01:56:52.633Z,28.23
2018-11-01T01:59:21.346Z,25.80
2018-11-01T02:01:49.997Z,28.37
2018-11-01T02:04:18.686Z,27.27
2018-11-01T02:06:47.320Z,25.20
2018-11-01T02:09:15.950Z,23.47
2018-11-01T02:11:45.129Z,25.17
2018-11-01T02:14:13.745Z,25.77
2018-11-01T02:16:42.868Z,28.30
2018-11-01T02:19:11.526Z,28.07
2018-11-01T02:21:40.190Z,30.07
2018-11-01T02:24:08.842Z,27.10
2018-11-01T02:26:37.476Z,26.77
2018-11-01T02:29:06.523Z,25.93
2018-11-01T02:31:35.182Z,24.87
2018-11-01T02:34:04.167Z,27.27
2018-11-01T02:36:32.923Z,29.27
2018-11-01T02:39:01.577Z,23.57
2018-11-01T02:41:30.256Z,24.57
2018-11-01T02:43:58.977Z,25.97
2018-11-01T02:46:27.613Z,28.80
2018-11-01T02:48:56.276Z,29.97
2018-11-01T02:51:24.904Z,26.50
2018-11-01T02:53:53.503Z,27.03
2018-11-01T02:56:22.243Z,26.10
2018-11-01T02:58:50.955Z,27.40
2018-11-01T03:01:19.903Z,25.60
2018-11-01T03:03:49.850Z,26.90
2018-11-01T03:06:19.013Z,24.57
2018-11-01T03:08:47.722Z,30.80
2018-11-01T03:11:16.384Z,26.03
2018-11-01T03:13:45.187Z,30.27
2018-11-01T03:16:13.922Z,26.93
2018-11-01T03:18:42.581Z,24.37
2018-11-01T03:21:11.228Z,27.33
2018-11-01T03:23:39.882Z,27.60
2018-11-01T03:26:08.506Z,28.17
2018-11-01T03:28:37.175Z,27.27
2018-11-01T03:31:06.134Z,24.57
2018-11-01T03:33:34.775Z,25.00
2018-11-01T03:36:03.517Z,26.50
2018-11-01T03:38:32.337Z,26.43
2018-11-01T03:41:01.050Z,25.30
2018-11-01T03:43:29.725Z,27.67
2018-11-01T03:45:58.400Z,26.27
2018-11-01T03:48:27.024Z,25.23
2018-11-01T03:50:55.673Z,30.03
2018-11-01T03:53:24.381Z,25.20
2018-11-01T03:55:53.083Z,25.47
2018-11-01T03:58:21.782Z,30.00
2018-11-01T04:00:50.540Z,27.53
2018-11-01T04:03:19.211Z,30.57
2018-11-01T04:05:47.861Z,33.80
2018-11-01T04:08:16.530Z,26.23
2018-11-01T04:10:45.259Z,25.17
2018-11-01T04:13:13.877Z,30.43
2018-11-01T04:15:42.570Z,27.43
2018-11-01T04:18:11.213Z,24.57
2018-11-01T04:20:39.922Z,25.43
2018-11-01T04:23:08.633Z,29.37
2018-11-01T04:25:37.298Z,31.57
2018-11-01T04:28:06.021Z,28.67
2018-11-01T04:30:34.707Z,25.60
2018-11-01T04:33:03.425Z,24.97
2018-11-01T04:35:32.012Z,25.07
2018-11-01T04:38:00.722Z,29.50
2018-11-01T04:40:29.408Z,26.57
2018-11-01T04:42:58.046Z,29.93
2018-11-01T04:45:26.732Z,24.53
2018-11-01T04:47:55.420Z,27.30
2018-11-01T04:50:24.052Z,23.57
2018-11-01T04:52:52.989Z,26.03
2018-11-01T04:55:21.677Z,27.13
2018-11-01T04:57:50.401Z,24.63
2018-11-01T05:00:19.126Z,23.50
2018-11-01T05:02:47.761Z,22.37
2018-11-01T05:05:16.480Z,24.03
2018-11-01T05:07:45.130Z,22.23
2018-11-01T05:10:13.971Z,28.53
2018-11-01T05:12:42.708Z,31.53
2018-11-01T05:15:11.332Z,30.00
2018-11-01T05:17:39.995Z,24.47
2018-11-01T05:20:23.899Z,25.70
2018-11-01T05:22:52.548Z,29.30
2018-11-01T05:25:21.303Z,27.87
2018-11-01T05:27:50.039Z,24.73
2018-11-01T05:30:18.698Z,27.97
2018-11-01T05:32:47.349Z,28.27
2018-11-01T05:35:16.001Z,24.90
2018-11-01T05:37:44.705Z,24.03
2018-11-01T05:40:13.439Z,28.57
2018-11-01T05:42:43.087Z,28.23
2018-11-01T05:45:11.948Z,28.77
2018-11-01T05:47:40.650Z,30.20
2018-11-01T05:50:09.308Z,33.37
2018-11-01T05:52:38.454Z,25.67
2018-11-01T05:55:07.694Z,28.90
2018-11-01T05:57:36.414Z,36.70
2018-11-01T06:00:10.850Z,33.47
2018-11-01T06:02:41.322Z,31.40
2018-11-01T06:05:10.597Z,32.83
2018-11-01T06:08:44.984Z,29.07
2018-11-01T06:11:13.630Z,32.23
2018-11-01T06:13:42.293Z,29.33
2018-11-01T06:16:10.925Z,27.70
2018-11-01T06:18:39.552Z,33.73
2018-11-01T06:21:08.229Z,33.63
2018-11-01T06:23:36.854Z,24.20
2018-11-01T06:26:05.598Z,28.80
2018-11-01T06:28:48.673Z,26.00
2018-11-01T06:31:17.329Z,31.37
2018-11-01T06:33:45.961Z,28.97
2018-11-01T06:36:15.700Z,30.37
2018-11-01T06:38:44.471Z,35.90
2018-11-01T06:41:13.206Z,30.47
2018-11-01T06:43:41.905Z,34.57
2018-11-01T06:46:10.640Z,33.60
2018-11-01T06:48:39.322Z,36.80
2018-11-01T06:51:08.160Z,28.33
2018-11-01T06:53:36.901Z,28.90
2018-11-01T06:56:05.836Z,29.33
2018-11-01T06:58:34.624Z,30.20
2018-11-01T07:01:03.171Z,27.57
2018-11-01T07:03:31.882Z,25.50
2018-11-01T07:06:00.508Z,24.60
2018-11-01T07:08:29.158Z,28.47
2018-11-01T07:10:57.807Z,24.57
2018-11-01T07:13:26.464Z,28.27
2018-11-01T07:15:55.097Z,35.50
2018-11-01T07:18:23.742Z,28.63
2018-11-01T07:20:52.389Z,27.80
2018-11-01T07:23:21.034Z,27.63
2018-11-01T07:25:49.724Z,24.63
2018-11-01T07:28:18.482Z,29.93
2018-11-01T07:30:47.141Z,33.67
2018-11-01T07:33:15.813Z,39.73
2018-11-01T07:35:44.465Z,35.27
2018-11-01T07:38:13.114Z,29.40
2018-11-01T07:40:41.907Z,27.83
2018-11-01T07:43:10.553Z,38.93
2018-11-01T07:45:39.217Z,29.37
2018-11-01T07:48:07.909Z,30.13
2018-11-01T07:50:36.579Z,31.60
2018-11-01T07:53:05.316Z,33.53
2018-11-01T07:55:34.029Z,34.57
2018-11-01T07:58:02.727Z,31.47
2018-11-01T08:00:31.468Z,26.77
2018-11-01T08:03:00.072Z,31.47
2018-11-01T08:05:28.679Z,28.90
2018-11-01T08:07:57.417Z,30.47
2018-11-01T08:10:26.026Z,29.97
2018-11-01T08:12:54.952Z,31.40
2018-11-01T08:15:23.635Z,29.43
2018-11-01T08:17:52.337Z,28.00
2018-11-01T08:20:21.220Z,33.00
2018-11-01T08:22:49.716Z,31.73
2018-11-01T08:25:18.353Z,29.37
2018-11-01T08:27:47.068Z,29.87
2018-11-01T08:30:17.058Z,30.80
2018-11-01T08:32:45.730Z,41.17
2018-11-01T08:35:14.447Z,35.37
2018-11-01T08:37:44.786Z,40.57
2018-11-01T08:40:13.918Z,42.43
2018-11-01T08:42:43.018Z,34.93
2018-11-01T08:45:13.010Z,35.27
2018-11-01T08:47:42.089Z,53.17
2018-11-01T08:50:12.073Z,33.80
2018-11-01T08:52:41.523Z,36.97
2018-11-01T08:55:10.804Z,38.53
2018-11-01T08:57:40.226Z,35.60
2018-11-01T09:00:09.709Z,45.20
2018-11-01T09:02:38.557Z,48.23
2018-11-01T09:05:08.073Z,38.83
2018-11-01T09:07:36.892Z,36.13
2018-11-01T09:10:07.612Z,38.87
2018-11-01T09:12:36.343Z,45.40
2018-11-01T09:15:05.685Z,38.07
2018-11-01T09:17:34.493Z,36.57
2018-11-01T09:20:03.208Z,36.93
2018-11-01T09:22:31.867Z,37.97
2018-11-01T09:25:00.613Z,40.83
2018-11-01T09:27:29.368Z,42.23
2018-11-01T09:29:58.062Z,41.80
2018-11-01T09:32:26.755Z,39.97
2018-11-01T09:34:55.502Z,38.10
2018-11-01T09:37:24.250Z,44.03
2018-11-01T09:39:52.914Z,40.67
2018-11-01T09:42:21.890Z,33.97
2018-11-01T09:44:50.754Z,41.67
2018-11-01T09:47:19.761Z,41.17
2018-11-01T09:49:48.046Z,32.67
2018-11-01T09:52:16.702Z,35.38
2018-11-01T09:54:45.404Z,41.30
2018-11-01T09:57:14.400Z,40.85
2018-11-01T09:59:43.266Z,40.78
2018-11-01T10:02:11.907Z,39.42
2018-11-01T10:04:40.789Z,37.20
2018-11-01T10:07:09.584Z,36.63
2018-11-01T10:09:38.142Z,38.93
2018-11-01T10:12:06.868Z,34.13
2018-11-01T10:14:35.526Z,34.93
2018-11-01T10:17:04.462Z,36.27
2018-11-01T10:19:33.114Z,39.70
2018-11-01T10:22:02.086Z,37.90
2018-11-01T10:24:30.704Z,36.20
2018-11-01T10:26:59.405Z,36.37
2018-11-01T10:29:34.542Z,35.03
2018-11-01T10:32:03.282Z,34.13
2018-11-01T10:34:31.981Z,35.93
2018-11-01T10:37:00.630Z,40.53
2018-11-01T10:39:29.288Z,40.17
2018-11-01T10:41:57.901Z,36.23
2018-11-01T10:44:26.573Z,37.20
2018-11-01T10:46:55.229Z,36.30
2018-11-01T10:49:23.965Z,26.70
2018-11-01T10:51:52.638Z,30.57
2018-11-01T10:54:21.283Z,32.57
2018-11-01T10:56:49.960Z,39.70
2018-11-01T10:59:19.008Z,30.60
2018-11-01T11:01:52.900Z,29.07
2018-11-01T11:04:21.602Z,35.53
2018-11-01T11:06:50.229Z,34.23
2018-11-01T11:09:18.885Z,30.73
2018-11-01T11:11:47.560Z,32.23
2018-11-01T11:14:16.316Z,32.20
2018-11-01T11:16:45.039Z,26.93
2018-11-01T11:19:13.835Z,34.73
2018-11-01T11:21:42.873Z,31.43
2018-11-01T11:24:12.428Z,33.47
2018-11-01T11:26:41.115Z,30.37
2018-11-01T11:29:10.410Z,31.60
2018-11-01T11:31:39.084Z,35.27
2018-11-01T11:34:07.758Z,29.53
2018-11-01T11:36:36.810Z,35.27
2018-11-01T11:39:09.071Z,32.77
2018-11-01T11:41:37.774Z,31.20
2018-11-01T11:44:06.517Z,61.63
2018-11-01T11:46:36.191Z,68.83
2018-11-01T11:49:05.694Z,39.43
2018-11-01T11:51:34.494Z,31.30
2018-11-01T11:54:03.273Z,36.47
2018-11-01T11:56:32.154Z,33.17
2018-11-01T11:59:01.032Z,34.63
2018-11-01T12:01:29.762Z,31.63
2018-11-01T12:03:58.491Z,33.37
2018-11-01T12:06:27.212Z,74.57
2018-11-01T12:08:55.901Z,35.90
2018-11-01T12:11:24.772Z,30.30
2018-11-01T12:13:53.485Z,32.33
2018-11-01T12:16:22.200Z,28.90
2018-11-01T12:18:50.902Z,25.50
2018-11-01T12:21:19.609Z,29.70
2018-11-01T12:23:48.348Z,27.90
2018-11-01T12:26:17.072Z,30.17
2018-11-01T12:28:45.886Z,32.20
2018-11-01T12:31:14.487Z,25.70
2018-11-01T12:33:43.155Z,35.43
2018-11-01T12:36:11.902Z,28.97
2018-11-01T12:38:40.604Z,24.77
2018-11-01T12:41:09.266Z,20.00
2018-11-01T12:43:37.934Z,23.93
2018-11-01T12:46:06.541Z,25.53
2018-11-01T12:48:35.170Z,24.23
2018-11-01T12:51:03.835Z,30.03
2018-11-01T12:53:32.537Z,18.60
2018-11-01T12:56:01.189Z,21.77
2018-11-01T12:58:29.852Z,16.97
2018-11-01T13:00:58.656Z,28.00
2018-11-01T13:03:27.338Z,25.40
2018-11-01T13:05:56.012Z,23.17
2018-11-01T13:08:24.649Z,24.43
2018-11-01T13:10:53.309Z,23.23
2018-11-01T13:13:21.991Z,21.80
2018-11-01T13:15:50.713Z,21.67
2018-11-01T13:18:19.720Z,22.60
2018-11-01T13:20:48.394Z,24.00
2018-11-01T13:23:17.075Z,22.07
2018-11-01T13:25:45.733Z,25.60
2018-11-01T13:28:14.450Z,28.83
2018-11-01T13:30:43.211Z,28.20
2018-11-01T13:33:11.883Z,29.50
2018-11-01T13:35:40.555Z,31.27
2018-11-01T13:38:09.229Z,24.27
2018-11-01T13:40:38.232Z,25.33
2018-11-01T13:43:06.886Z,34.17
2018-11-01T13:45:35.599Z,21.97
2018-11-01T13:48:04.399Z,28.50
2018-11-01T13:50:32.926Z,28.13
2018-11-01T13:53:01.799Z,22.50
2018-11-01T13:55:30.481Z,19.13
2018-11-01T13:57:59.133Z,18.17
2018-11-01T14:00:27.782Z,19.33
2018-11-01T14:02:56.465Z,26.03
2018-11-01T14:05:25.168Z,22.53
2018-11-01T14:07:53.842Z,17.47
2018-11-01T14:10:22.512Z,18.83
2018-11-01T14:12:51.157Z,18.43
2018-11-01T14:15:20.191Z,18.77
2018-11-01T14:17:48.498Z,18.93
2018-11-01T14:20:17.180Z,19.30
2018-11-01T14:22:45.831Z,18.10
2018-11-01T14:25:14.539Z,24.63
2018-11-01T14:27:43.455Z,22.30
2018-11-01T14:30:15.027Z,29.83
2018-11-01T14:32:43.701Z,23.97
2018-11-01T14:35:12.693Z,20.00
2018-11-01T14:37:41.434Z,21.03
2018-11-01T14:40:11.819Z,17.33
2018-11-01T14:42:40.774Z,32.97
2018-11-01T14:45:10.075Z,31.37
2018-11-01T14:47:38.958Z,24.10
2018-11-01T14:50:08.487Z,24.77
2018-11-01T14:52:37.718Z,32.83
2018-11-01T14:55:07.398Z,34.77
2018-11-01T14:57:36.520Z,30.33
2018-11-01T15:00:07.469Z,25.67
2018-11-01T15:02:36.322Z,20.40
2018-11-01T15:05:05.144Z,25.70
2018-11-01T15:07:33.887Z,28.30
2018-11-01T15:10:02.542Z,26.03
2018-11-01T15:12:31.206Z,28.33
2018-11-01T15:14:59.866Z,30.97
2018-11-01T15:17:28.576Z,28.73
2018-11-01T15:19:57.306Z,29.03
2018-11-01T15:22:25.978Z,33.90
2018-11-01T15:24:54.612Z,34.37
2018-11-01T15:27:23.365Z,31.53
2018-11-01T15:29:52.080Z,33.47
2018-11-01T15:32:29.017Z,25.20
2018-11-01T15:34:58.543Z,29.67
2018-11-01T15:37:27.269Z,32.47
2018-11-01T15:39:56.106Z,28.13
2018-11-01T15:42:24.740Z,25.20
2018-11-01T15:44:53.490Z,27.57
2018-11-01T15:47:22.204Z,23.63
2018-11-01T15:49:50.848Z,32.20
2018-11-01T15:52:19.552Z,24.80
2018-11-01T15:54:48.244Z,26.53
2018-11-01T15:57:16.909Z,30.43
2018-11-01T15:59:45.723Z,30.90
2018-11-01T16:02:14.324Z,32.20
2018-11-01T16:04:42.986Z,30.17
2018-11-01T16:07:11.647Z,29.40
2018-11-01T16:09:40.389Z,27.97
2018-11-01T16:12:09.069Z,28.73
2018-11-01T16:14:37.778Z,25.67
2018-11-01T16:17:06.500Z,21.67
2018-11-01T16:19:35.219Z,24.93
2018-11-01T16:22:03.872Z,21.83
2018-11-01T16:24:32.684Z,20.27
2018-11-01T16:27:01.368Z,23.23
2018-11-01T16:29:30.015Z,25.40
2018-11-01T16:31:58.845Z,24.73
2018-11-01T16:34:27.534Z,24.80
2018-11-01T16:36:56.270Z,23.73
2018-11-01T16:39:24.915Z,20.83
2018-11-01T16:41:53.612Z,26.70
2018-11-01T16:44:22.288Z,18.50
2018-11-01T16:46:51.045Z,21.13
2018-11-01T16:49:20.589Z,20.27
2018-11-01T16:51:49.429Z,22.90
2018-11-01T16:54:18.095Z,26.50
2018-11-01T16:56:46.801Z,30.27
2018-11-01T16:59:15.516Z,29.53
2018-11-01T17:01:44.170Z,29.57
2018-11-01T17:04:12.923Z,27.13
2018-11-01T17:06:41.690Z,35.33
2018-11-01T17:09:11.127Z,31.43
2018-11-01T17:11:40.253Z,26.93
2018-11-01T17:14:08.942Z,25.73
2018-11-01T17:16:37.962Z,24.53
2018-11-01T17:19:07.762Z,22.23
2018-11-01T17:21:36.546Z,21.47
2018-11-01T17:24:05.613Z,27.17
2018-11-01T17:26:34.332Z,32.67
2018-11-01T17:29:02.975Z,24.53
2018-11-01T17:31:31.618Z,26.80
2018-11-01T17:34:00.709Z,31.33
2018-11-01T17:36:29.279Z,29.10
2018-11-01T17:38:57.931Z,27.20
2018-11-01T17:41:26.611Z,27.53
2018-11-01T17:43:55.422Z,23.17
2018-11-01T17:46:24.055Z,27.90
2018-11-01T17:48:52.715Z,21.17
2018-11-01T17:51:21.509Z,23.47
2018-11-01T17:53:50.086Z,20.80
2018-11-01T17:56:18.756Z,24.37
2018-11-01T17:58:47.450Z,27.00
2018-11-01T18:01:16.133Z,29.10
2018-11-01T18:03:44.810Z,22.13
2018-11-01T18:06:13.531Z,28.40
2018-11-01T18:08:42.226Z,21.17
2018-11-01T18:11:10.893Z,22.80
2018-11-01T18:13:39.554Z,23.20
2018-11-01T18:16:08.172Z,23.80
2018-11-01T18:18:36.842Z,23.87
2018-11-01T18:21:05.733Z,30.57
2018-11-01T18:23:34.401Z,28.97
2018-11-01T18:26:03.108Z,33.47
2018-11-01T18:28:31.846Z,31.07
2018-11-01T18:31:00.788Z,24.30
2018-11-01T18:33:29.448Z,28.00
2018-11-01T18:35:58.114Z,26.53
2018-11-01T18:38:26.806Z,25.67
2018-11-01T18:40:55.487Z,22.03
2018-11-01T18:43:24.178Z,23.63
2018-11-01T18:45:52.877Z,32.53
2018-11-01T18:48:21.674Z,23.50
2018-11-01T18:50:50.436Z,25.23
2018-11-01T18:53:19.126Z,29.47
2018-11-01T18:55:47.804Z,25.40
2018-11-01T18:58:16.456Z,19.77
2018-11-01T19:00:45.578Z,26.73
2018-11-01T19:03:14.169Z,24.67
2018-11-01T19:05:42.892Z,22.50
2018-11-01T19:08:11.542Z,26.37
2018-11-01T19:10:40.698Z,22.73
2018-11-01T19:13:09.334Z,22.17
2018-11-01T19:15:38.229Z,26.13
2018-11-01T19:18:06.948Z,26.23
2018-11-01T19:20:36.164Z,28.00
2018-11-01T19:23:04.817Z,32.30
2018-11-01T19:25:33.523Z,25.20
2018-11-01T19:28:02.316Z,27.60
2018-11-01T19:30:30.924Z,26.43
2018-11-01T19:32:59.600Z,24.97
2018-11-01T19:35:28.229Z,26.30
2018-11-01T19:37:56.885Z,24.83
2018-11-01T19:40:25.627Z,24.60
2018-11-01T19:42:54.246Z,24.80
2018-11-01T19:45:22.889Z,25.97
2018-11-01T19:47:51.549Z,24.30
2018-11-01T19:50:20.252Z,20.40
2018-11-01T19:52:48.976Z,23.77
2018-11-01T19:55:17.661Z,21.40
2018-11-01T19:57:46.313Z,21.67
2018-11-01T20:00:16.655Z,25.57
2018-11-01T20:02:46.176Z,24.40
2018-11-01T20:05:14.962Z,25.40
2018-11-01T20:07:43.743Z,25.97
2018-11-01T20:10:13.591Z,25.43
2018-11-01T20:12:42.629Z,24.60
2018-11-01T20:15:11.301Z,24.93
2018-11-01T20:17:40.005Z,23.47
2018-11-01T20:20:10.783Z,22.07
2018-11-01T20:22:39.501Z,23.80
2018-11-01T20:25:08.455Z,23.87
2018-11-01T20:27:37.539Z,26.87
2018-11-01T20:30:14.182Z,23.47
2018-11-01T20:32:43.541Z,31.27
2018-11-01T20:35:14.371Z,28.70
2018-11-01T20:37:43.680Z,26.00
2018-11-01T20:40:12.728Z,29.83
2018-11-01T20:42:42.078Z,29.03
2018-11-01T20:45:11.747Z,29.30
2018-11-01T20:47:40.390Z,29.80
2018-11-01T20:50:10.512Z,30.80
2018-11-01T20:52:39.411Z,35.03
2018-11-01T20:55:09.119Z,34.57
2018-11-01T20:57:38.119Z,34.77
2018-11-01T21:00:11.907Z,40.87
2018-11-01T21:02:40.686Z,36.63
2018-11-01T21:05:11.346Z,33.03
2018-11-01T21:07:40.000Z,34.67
2018-11-01T21:10:09.871Z,34.97
2018-11-01T21:12:39.186Z,33.87
2018-11-01T21:15:09.503Z,33.67
2018-11-01T21:17:38.246Z,35.43
2018-11-01T21:20:07.379Z,41.47
2018-11-01T21:22:36.081Z,40.40
2018-11-01T21:25:04.973Z,38.40
2018-11-01T21:27:33.711Z,37.87
2018-11-01T21:30:06.253Z,36.07
2018-11-01T21:32:34.926Z,37.03
2018-11-01T21:35:03.821Z,36.40
2018-11-01T21:37:32.571Z,38.23
2018-11-01T21:40:01.543Z,38.50
2018-11-01T21:42:30.337Z,36.87
2018-11-01T21:44:59.115Z,38.30
2018-11-01T21:47:27.866Z,39.00
2018-11-01T21:49:56.517Z,35.63
2018-11-01T21:52:25.326Z,35.93
2018-11-01T21:54:54.131Z,40.70
2018-11-01T21:57:22.818Z,38.00
2018-11-01T21:59:51.612Z,42.70
2018-11-01T22:02:20.286Z,37.47
2018-11-01T22:04:48.936Z,41.37
2018-11-01T22:07:17.767Z,40.97
2018-11-01T22:09:46.721Z,39.60
2018-11-01T22:12:15.356Z,36.70
2018-11-01T22:14:44.000Z,38.73
2018-11-01T22:17:12.646Z,42.60
2018-11-01T22:19:41.279Z,41.90
2018-11-01T22:22:09.965Z,40.23
2018-11-01T22:24:38.597Z,39.17
2018-11-01T22:27:07.260Z,40.63
2018-11-01T22:29:36.164Z,44.70
2018-11-01T22:32:04.798Z,41.93
2018-11-01T22:34:33.482Z,42.87
2018-11-01T22:37:02.227Z,41.80
2018-11-01T22:39:30.911Z,43.13
2018-11-01T22:41:59.670Z,42.57
2018-11-01T22:44:28.396Z,46.80
2018-11-01T22:46:57.073Z,39.33
2018-11-01T22:49:25.762Z,48.07
2018-11-01T22:51:54.742Z,43.27
2018-11-01T22:54:23.397Z,46.17
2018-11-01T22:56:52.082Z,43.37
2018-11-01T22:59:20.712Z,41.70
2018-11-01T23:01:49.455Z,47.10
2018-11-01T23:04:18.115Z,40.30
2018-11-01T23:06:46.753Z,42.63
2018-11-01T23:09:15.395Z,41.40
2018-11-01T23:11:44.050Z,41.40
2018-11-01T23:14:12.662Z,45.40
2018-11-01T23:16:41.333Z,41.63
2018-11-01T23:19:10.309Z,43.63
2018-11-01T23:21:38.952Z,47.10
2018-11-01T23:24:07.617Z,51.73
2018-11-01T23:26:36.285Z,45.40
2018-11-01T23:29:04.921Z,47.83
2018-11-01T23:31:33.779Z,52.63
2018-11-01T23:34:02.469Z,47.40
2018-11-01T23:36:36.274Z,51.20
2018-11-01T23:39:12.670Z,46.27
2018-11-01T23:41:46.749Z,46.60
2018-11-01T23:44:20.725Z,47.57
2018-11-01T23:46:54.615Z,43.77
2018-11-01T23:49:27.435Z,45.30
2018-11-01T23:52:01.630Z,46.43
2018-11-01T23:54:30.326Z,46.80
2018-11-01T23:56:58.973Z,43.17
2018-11-01T23:59:27.622Z,44.73
